createdAt,value
2023-01-19T00:01:39.925Z,20.77
2023-01-19T00:04:07.424Z,21.75
2023-01-19T00:06:35.664Z,27.90
2023-01-19T00:09:03.381Z,24.15
2023-01-19T00:11:30.816Z,25.90
2023-01-19T00:13:59.040Z,15.10
2023-01-19T00:16:30.204Z,10.40
2023-01-19T00:18:59.194Z,10.57
2023-01-19T00:21:26.655Z,8.38
2023-01-19T00:23:54.432Z,6.95
2023-01-19T00:26:22.630Z,5.38
2023-01-19T00:28:52.248Z,7.32
2023-01-19T00:31:21.825Z,8.30
2023-01-19T00:33:50.200Z,9.23
2023-01-19T00:36:18.111Z,9.10
2023-01-19T00:38:48.674Z,10.35
2023-01-19T00:41:20.267Z,10.38
2023-01-19T00:43:47.847Z,6.72
2023-01-19T00:46:15.396Z,14.07
2023-01-19T00:48:42.975Z,9.95
2023-01-19T00:51:10.764Z,8.18
2023-01-19T00:53:38.942Z,10.05
2023-01-19T00:56:07.038Z,7.07
2023-01-19T00:58:34.526Z,7.47
2023-01-19T01:01:04.970Z,1.63
2023-01-19T01:03:33.856Z,3.80
2023-01-19T01:06:01.305Z,2.70
2023-01-19T01:08:28.985Z,4.03
2023-01-19T01:10:58.492Z,2.17
2023-01-19T01:13:28.319Z,6.63
2023-01-19T01:15:58.105Z,4.75
2023-01-19T01:18:29.376Z,6.25
2023-01-19T01:21:07.815Z,4.35
2023-01-19T01:23:38.195Z,5.05
2023-01-19T01:26:06.496Z,6.32
2023-01-19T01:28:36.193Z,5.13
2023-01-19T01:31:04.020Z,10.52
2023-01-19T01:33:40.994Z,9.15
2023-01-19T01:36:11.351Z,8.95
2023-01-19T01:38:40.988Z,11.65
2023-01-19T01:41:09.091Z,8.98
2023-01-19T01:44:06.399Z,8.82
2023-01-19T01:46:34.122Z,11.18
2023-01-19T01:49:15.226Z,9.25
2023-01-19T01:51:53.055Z,10.07
2023-01-19T01:54:27.189Z,12.85
2023-01-19T01:56:59.252Z,7.35
2023-01-19T01:59:35.271Z,12.80
2023-01-19T02:02:27.040Z,10.05
2023-01-19T02:04:58.047Z,10.40
2023-01-19T02:07:57.745Z,5.82
2023-01-19T02:10:43.840Z,9.45
2023-01-19T02:13:22.124Z,11.27
2023-01-19T02:15:58.927Z,6.45
2023-01-19T02:18:29.497Z,4.45
2023-01-19T02:21:25.752Z,8.15
2023-01-19T02:23:58.510Z,10.32
2023-01-19T02:26:43.035Z,8.95
2023-01-19T02:29:14.926Z,5.43
2023-01-19T02:31:42.963Z,6.22
2023-01-19T02:34:12.569Z,10.98
2023-01-19T02:36:52.430Z,7.50
2023-01-19T02:39:23.068Z,8.60
2023-01-19T02:41:55.912Z,6.22
2023-01-19T02:46:50.708Z,8.60
2023-01-19T02:49:18.095Z,9.05
2023-01-19T02:51:45.490Z,7.05
2023-01-19T02:54:31.732Z,7.30
2023-01-19T02:57:33.632Z,5.72
2023-01-19T03:00:18.116Z,5.00
2023-01-19T03:03:11.242Z,7.38
2023-01-19T03:05:54.989Z,5.45
2023-01-19T03:08:42.358Z,6.60
2023-01-19T03:11:14.029Z,7.32
2023-01-19T03:13:50.350Z,5.63
2023-01-19T03:16:29.992Z,2.75
2023-01-19T03:19:12.509Z,5.35
2023-01-19T03:21:40.628Z,4.43
2023-01-19T03:24:09.261Z,5.65
2023-01-19T03:26:44.075Z,5.90
2023-01-19T03:29:14.178Z,7.07
2023-01-19T03:31:44.058Z,2.63
2023-01-19T03:34:12.613Z,5.28
2023-01-19T03:36:45.969Z,5.43
2023-01-19T03:39:16.733Z,4.47
2023-01-19T03:41:45.641Z,4.72
2023-01-19T03:44:14.141Z,6.40
2023-01-19T03:46:42.484Z,7.97
2023-01-19T03:49:10.999Z,5.68
2023-01-19T03:51:39.210Z,5.75
2023-01-19T03:54:08.149Z,6.18
2023-01-19T03:56:38.715Z,7.25
2023-01-19T03:59:06.169Z,5.78
2023-01-19T04:01:33.919Z,9.00
2023-01-19T04:04:03.945Z,8.48
2023-01-19T04:06:32.146Z,9.18
2023-01-19T04:08:59.692Z,7.78
2023-01-19T04:11:27.182Z,9.15
2023-01-19T04:13:54.571Z,6.45
2023-01-19T04:16:22.222Z,9.77
2023-01-19T04:18:52.813Z,8.27
2023-01-19T04:21:20.471Z,6.30
2023-01-19T04:23:50.363Z,9.68
2023-01-19T04:26:18.612Z,7.65
2023-01-19T04:28:46.172Z,6.03
2023-01-19T04:31:17.040Z,8.57
2023-01-19T04:33:45.928Z,12.82
2023-01-19T04:36:15.032Z,6.78
2023-01-19T04:38:45.653Z,16.40
2023-01-19T04:41:13.489Z,11.82
2023-01-19T04:43:41.382Z,16.02
2023-01-19T04:46:08.862Z,17.60
2023-01-19T04:48:36.430Z,10.43
2023-01-19T04:51:04.876Z,18.33
2023-01-19T04:53:32.805Z,17.17
2023-01-19T04:56:03.707Z,19.58
2023-01-19T04:58:31.629Z,18.63
2023-01-19T05:01:00.823Z,14.88
2023-01-19T05:03:28.438Z,25.55
2023-01-19T05:05:56.328Z,19.17
2023-01-19T05:08:24.609Z,16.83
2023-01-19T05:10:53.001Z,22.05
2023-01-19T05:13:21.102Z,19.42
2023-01-19T05:15:48.741Z,19.23
2023-01-19T05:18:16.903Z,24.05
2023-01-19T05:20:45.687Z,15.25
2023-01-19T05:23:13.323Z,22.95
2023-01-19T05:25:42.807Z,14.73
2023-01-19T05:28:10.717Z,22.45
2023-01-19T05:30:38.756Z,16.52
2023-01-19T05:33:07.844Z,30.92
2023-01-19T05:35:37.076Z,15.68
2023-01-19T05:38:05.470Z,23.45
2023-01-19T05:40:34.018Z,22.98
2023-01-19T05:43:05.598Z,35.65
2023-01-19T05:45:34.024Z,26.27
2023-01-19T05:48:04.715Z,21.77
2023-01-19T05:50:32.641Z,23.48
2023-01-19T05:53:01.407Z,12.88
2023-01-19T05:55:32.212Z,19.33
2023-01-19T05:58:05.879Z,15.20
2023-01-19T06:00:33.544Z,9.85
2023-01-19T06:03:04.799Z,17.52
2023-01-19T06:05:32.858Z,16.60
2023-01-19T06:08:00.718Z,23.20
2023-01-19T06:10:29.169Z,22.13
2023-01-19T06:12:57.288Z,20.45
2023-01-19T06:15:25.974Z,24.42
2023-01-19T06:17:53.373Z,13.75
2023-01-19T06:20:22.255Z,23.88
2023-01-19T06:22:50.507Z,27.73
2023-01-19T06:25:18.456Z,30.63
2023-01-19T06:27:46.551Z,19.58
2023-01-19T06:30:15.322Z,20.23
2023-01-19T06:32:44.496Z,22.55
2023-01-19T06:35:14.621Z,25.25
2023-01-19T06:37:42.493Z,30.67
2023-01-19T06:40:12.927Z,22.35
2023-01-19T06:42:42.924Z,33.17
2023-01-19T06:45:12.726Z,20.88
2023-01-19T06:47:40.409Z,28.83
2023-01-19T06:50:09.831Z,31.35
2023-01-19T06:52:42.700Z,37.08
2023-01-19T06:55:11.486Z,32.55
2023-01-19T06:57:41.220Z,29.40
2023-01-19T07:00:11.157Z,36.90
2023-01-19T07:02:43.738Z,34.45
2023-01-19T07:05:14.400Z,23.85
2023-01-19T07:07:43.915Z,24.75
2023-01-19T07:10:18.859Z,22.10
2023-01-19T07:12:47.560Z,24.60
2023-01-19T07:15:18.627Z,17.23
2023-01-19T07:17:47.065Z,23.05
2023-01-19T07:20:19.121Z,17.48
2023-01-19T07:22:47.758Z,19.40
2023-01-19T07:25:16.330Z,19.23
2023-01-19T07:28:03.628Z,24.00
2023-01-19T07:30:34.369Z,21.92
2023-01-19T07:33:04.392Z,27.30
2023-01-19T07:35:32.069Z,23.73
2023-01-19T07:38:00.132Z,27.92
2023-01-19T07:40:33.150Z,34.42
2023-01-19T07:43:06.673Z,26.02
2023-01-19T07:48:18.145Z,30.55
2023-01-19T07:53:30.640Z,19.95
2023-01-19T07:55:58.409Z,31.70
2023-01-19T07:58:30.195Z,23.67
2023-01-19T08:01:02.718Z,22.50
2023-01-19T08:03:32.611Z,27.05
2023-01-19T08:06:02.966Z,19.15
2023-01-19T08:08:34.884Z,33.50
2023-01-19T08:13:34.522Z,27.88
2023-01-19T08:16:02.397Z,18.85
2023-01-19T08:18:30.145Z,29.55
2023-01-19T08:23:43.408Z,23.42
2023-01-19T08:26:32.929Z,23.45
2023-01-19T08:29:03.392Z,23.13
2023-01-19T08:31:31.490Z,24.23
2023-01-19T08:34:00.435Z,31.30
2023-01-19T08:36:31.524Z,24.77
2023-01-19T08:39:01.453Z,31.15
2023-01-19T08:41:31.923Z,21.08
2023-01-19T08:46:42.733Z,32.45
2023-01-19T08:49:10.555Z,25.65
2023-01-19T08:51:38.484Z,34.53
2023-01-19T08:54:06.794Z,30.55
2023-01-19T08:56:37.058Z,24.73
2023-01-19T08:59:09.822Z,30.65
2023-01-19T09:01:38.750Z,25.90
2023-01-19T09:04:09.753Z,22.67
2023-01-19T09:06:38.180Z,25.73
2023-01-19T09:09:11.074Z,27.77
2023-01-19T09:14:06.094Z,18.58
2023-01-19T09:16:33.772Z,17.80
2023-01-19T09:19:01.325Z,15.20
2023-01-19T09:21:29.591Z,21.65
2023-01-19T09:23:57.898Z,21.65
2023-01-19T09:26:27.333Z,19.17
2023-01-19T09:28:54.950Z,16.30
2023-01-19T09:31:22.931Z,18.40
2023-01-19T09:33:50.865Z,20.58
2023-01-19T09:36:18.687Z,14.20
2023-01-19T09:38:46.209Z,17.23
2023-01-19T09:41:20.322Z,14.25
2023-01-19T09:44:01.460Z,16.52
2023-01-19T09:46:35.029Z,17.70
2023-01-19T09:49:05.219Z,12.95
2023-01-19T09:51:37.348Z,9.52
2023-01-19T09:54:17.246Z,17.47
2023-01-19T09:56:46.533Z,15.02
2023-01-19T09:59:22.971Z,13.70
2023-01-19T10:02:20.149Z,13.38
2023-01-19T10:05:33.237Z,14.63
2023-01-19T10:08:38.680Z,12.35
2023-01-19T10:11:51.600Z,12.50
2023-01-19T10:14:35.380Z,13.93
2023-01-19T10:19:50.163Z,7.85
2023-01-19T10:22:22.304Z,17.15
2023-01-19T10:25:00.879Z,13.52
2023-01-19T10:27:31.000Z,14.50
2023-01-19T10:29:59.319Z,10.55
2023-01-19T10:32:30.787Z,10.90
2023-01-19T10:35:00.093Z,11.00
2023-01-19T10:37:42.283Z,10.35
2023-01-19T10:40:13.251Z,13.38
2023-01-19T10:42:42.047Z,15.40
2023-01-19T10:45:17.538Z,7.15
2023-01-19T10:47:46.365Z,14.52
2023-01-19T10:50:31.847Z,8.65
2023-01-19T10:53:02.055Z,10.85
2023-01-19T10:55:30.930Z,10.18
2023-01-19T10:57:59.011Z,6.28
2023-01-19T11:00:38.005Z,11.35
2023-01-19T11:03:24.747Z,5.50
2023-01-19T11:05:52.301Z,7.57
2023-01-19T11:08:30.640Z,7.75
2023-01-19T11:11:05.259Z,6.68
2023-01-19T11:13:33.101Z,11.32
2023-01-19T11:16:08.891Z,6.00
2023-01-19T11:18:39.336Z,8.73
2023-01-19T11:21:11.130Z,4.63
2023-01-19T11:23:51.215Z,10.75
2023-01-19T11:26:43.067Z,7.65
2023-01-19T11:29:22.384Z,10.00
2023-01-19T11:31:50.783Z,8.05
2023-01-19T11:34:35.459Z,8.48
2023-01-19T11:37:05.982Z,9.40
2023-01-19T11:39:46.928Z,6.30
2023-01-19T11:42:14.788Z,6.70
2023-01-19T11:45:14.630Z,8.15
2023-01-19T11:47:52.762Z,12.15
2023-01-19T11:50:24.351Z,7.18
2023-01-19T11:53:12.222Z,5.93
2023-01-19T11:55:42.762Z,5.68
2023-01-19T11:58:16.520Z,8.82
2023-01-19T12:00:45.584Z,7.68
2023-01-19T12:03:24.760Z,8.77
2023-01-19T12:05:54.279Z,8.52
2023-01-19T12:08:56.909Z,7.93
2023-01-19T12:11:31.688Z,4.15
2023-01-19T12:13:59.243Z,9.43
2023-01-19T12:16:30.889Z,5.82
2023-01-19T12:19:05.536Z,8.68
2023-01-19T12:21:32.960Z,6.55
2023-01-19T12:24:51.530Z,6.60
2023-01-19T12:27:40.827Z,8.15
2023-01-19T12:30:22.318Z,9.82
2023-01-19T12:32:51.323Z,6.30
2023-01-19T12:35:57.081Z,9.82
2023-01-19T12:38:40.969Z,6.97
2023-01-19T12:41:36.027Z,9.85
2023-01-19T12:44:14.068Z,6.88
2023-01-19T12:46:42.170Z,8.70
2023-01-19T12:49:12.616Z,7.93
2023-01-19T12:51:40.086Z,6.13
2023-01-19T12:54:08.974Z,6.78
2023-01-19T12:56:38.083Z,5.70
2023-01-19T12:59:06.638Z,8.85
2023-01-19T13:01:34.394Z,6.75
2023-01-19T13:04:07.574Z,8.20
2023-01-19T13:06:50.368Z,7.40
2023-01-19T13:09:31.533Z,5.35
2023-01-19T13:12:19.547Z,4.95
2023-01-19T13:14:47.199Z,9.48
2023-01-19T13:17:53.595Z,13.43
2023-01-19T13:20:31.901Z,6.20
2023-01-19T13:23:23.895Z,5.90
2023-01-19T13:26:06.455Z,6.20
2023-01-19T13:28:41.919Z,7.05
2023-01-19T13:31:10.326Z,5.28
2023-01-19T13:33:50.159Z,8.25
2023-01-19T13:36:28.700Z,6.10
2023-01-19T13:38:57.543Z,6.35
2023-01-19T13:41:27.211Z,5.47
2023-01-19T13:44:27.449Z,6.05
2023-01-19T13:46:56.579Z,6.13
2023-01-19T13:49:39.015Z,7.95
2023-01-19T13:52:21.160Z,7.80
2023-01-19T13:54:53.536Z,6.50
2023-01-19T13:57:27.812Z,5.35
2023-01-19T14:00:05.449Z,7.65
2023-01-19T14:02:33.275Z,4.45
2023-01-19T14:05:33.801Z,5.95
2023-01-19T14:08:01.622Z,8.50
2023-01-19T14:10:31.281Z,10.40
2023-01-19T14:13:03.551Z,5.53
2023-01-19T14:15:33.601Z,5.97
2023-01-19T14:18:24.589Z,6.53
2023-01-19T14:21:12.692Z,7.28
2023-01-19T14:23:52.741Z,7.85
2023-01-19T14:26:38.542Z,4.72
2023-01-19T14:29:26.963Z,7.32
2023-01-19T14:32:06.200Z,5.72
2023-01-19T14:34:36.525Z,7.45
2023-01-19T14:37:05.822Z,8.05
2023-01-19T14:39:35.580Z,6.20
2023-01-19T14:42:05.430Z,4.78
2023-01-19T14:44:39.668Z,4.88
2023-01-19T14:47:20.681Z,5.25
2023-01-19T14:49:48.489Z,6.97
2023-01-19T14:52:22.292Z,9.00
2023-01-19T14:54:50.061Z,4.70
2023-01-19T14:57:17.636Z,7.35
2023-01-19T14:59:48.524Z,8.90
2023-01-19T15:02:19.168Z,4.40
2023-01-19T15:04:48.067Z,4.90
2023-01-19T15:07:19.845Z,5.68
2023-01-19T15:09:50.597Z,7.03
2023-01-19T15:12:20.777Z,5.68
2023-01-19T15:14:48.278Z,7.18
2023-01-19T15:17:25.177Z,8.02
2023-01-19T15:19:59.089Z,4.40
2023-01-19T15:22:28.873Z,9.75
2023-01-19T15:25:00.457Z,6.70
2023-01-19T15:27:28.334Z,7.25
2023-01-19T15:29:56.068Z,7.70
2023-01-19T15:32:23.632Z,4.68
2023-01-19T15:34:51.627Z,5.35
2023-01-19T15:37:19.243Z,10.05
2023-01-19T15:39:48.262Z,8.93
2023-01-19T15:42:16.957Z,6.60
2023-01-19T15:44:45.254Z,6.05
2023-01-19T15:47:12.781Z,7.30
2023-01-19T15:49:40.374Z,5.85
2023-01-19T15:52:07.892Z,4.75
2023-01-19T15:54:35.714Z,8.70
2023-01-19T15:57:06.368Z,5.22
2023-01-19T15:59:33.971Z,7.68
2023-01-19T16:02:01.923Z,6.80
2023-01-19T16:07:16.489Z,11.13
2023-01-19T16:09:44.439Z,6.07
2023-01-19T16:12:11.967Z,6.53
2023-01-19T16:14:39.482Z,7.45
2023-01-19T16:17:08.684Z,6.57
2023-01-19T16:19:36.335Z,8.88
2023-01-19T16:22:05.910Z,9.43
2023-01-19T16:24:33.481Z,3.63
2023-01-19T16:27:04.131Z,6.60
2023-01-19T16:29:32.659Z,6.28
2023-01-19T16:32:01.106Z,11.68
2023-01-19T16:34:29.834Z,8.13
2023-01-19T16:36:58.996Z,7.93
2023-01-19T16:39:26.627Z,10.52
2023-01-19T16:41:55.185Z,9.80
2023-01-19T16:44:22.667Z,7.45
2023-01-19T16:46:50.487Z,7.82
2023-01-19T16:49:21.398Z,14.35
2023-01-19T16:51:49.372Z,12.02
2023-01-19T16:54:19.674Z,10.23
2023-01-19T16:56:47.842Z,8.57
2023-01-19T16:59:17.216Z,13.00
2023-01-19T17:01:45.984Z,13.35
2023-01-19T17:04:15.206Z,13.77
2023-01-19T17:06:42.929Z,14.23
2023-01-19T17:09:11.193Z,12.40
2023-01-19T17:11:40.711Z,10.57
2023-01-19T17:14:17.221Z,12.40
2023-01-19T17:16:45.038Z,8.00
2023-01-19T17:19:17.901Z,7.75
2023-01-19T17:24:15.335Z,4.43
2023-01-19T17:26:46.099Z,5.68
2023-01-19T17:29:13.635Z,7.93
2023-01-19T17:31:41.834Z,4.97
2023-01-19T17:34:10.010Z,2.05
2023-01-19T17:36:38.080Z,1.67
2023-01-19T17:41:18.923Z,3.85
2023-01-19T17:43:31.552Z,2.20
2023-01-19T17:46:00.870Z,2.95
2023-01-19T17:48:28.738Z,3.13
2023-01-19T17:51:01.451Z,2.65
2023-01-19T17:53:29.247Z,1.05
2023-01-19T17:56:02.491Z,1.15
2023-01-19T17:58:31.714Z,3.80
2023-01-19T18:00:59.950Z,1.15
2023-01-19T18:03:27.747Z,3.10
2023-01-19T18:05:59.807Z,2.72
2023-01-19T18:08:27.347Z,3.53
2023-01-19T18:11:00.136Z,38.78
2023-01-19T18:13:28.591Z,20.17
2023-01-19T18:16:03.503Z,11.52
2023-01-19T18:18:31.888Z,1.88
2023-01-19T18:21:05.304Z,5.38
2023-01-19T18:23:34.031Z,5.55
2023-01-19T18:26:09.285Z,7.72
2023-01-19T18:28:37.450Z,7.10
2023-01-19T18:31:17.563Z,8.63
2023-01-19T18:33:45.662Z,11.68
2023-01-19T18:36:17.788Z,10.25
2023-01-19T18:38:46.092Z,46.65
2023-01-19T18:41:16.753Z,17.73
2023-01-19T18:43:49.521Z,5.70
2023-01-19T18:46:17.961Z,8.50
2023-01-19T18:48:45.526Z,6.68
2023-01-19T18:51:15.387Z,10.20
2023-01-19T18:53:43.995Z,8.15
2023-01-19T18:56:15.849Z,9.57
2023-01-19T18:58:44.451Z,10.43
2023-01-19T19:01:27.196Z,22.33
2023-01-19T19:03:55.971Z,19.90
2023-01-19T19:06:24.489Z,18.23
2023-01-19T19:08:54.513Z,12.38
2023-01-19T19:11:24.769Z,13.10
2023-01-19T19:14:00.533Z,12.30
2023-01-19T19:16:29.205Z,12.38
2023-01-19T19:18:57.097Z,9.88
2023-01-19T19:21:25.733Z,9.38
2023-01-19T19:23:55.499Z,9.15
2023-01-19T19:26:25.003Z,4.63
2023-01-19T19:28:52.606Z,5.88
2023-01-19T19:31:22.289Z,5.55
2023-01-19T19:33:51.464Z,9.68
2023-01-19T19:36:23.057Z,10.05
2023-01-19T19:38:54.405Z,11.27
2023-01-19T19:41:27.522Z,9.10
2023-01-19T19:43:55.699Z,11.52
2023-01-19T19:46:24.553Z,13.63
2023-01-19T19:48:53.117Z,9.68
2023-01-19T19:51:26.948Z,16.60
2023-01-19T19:53:59.407Z,19.33
2023-01-19T19:56:28.961Z,22.92
2023-01-19T19:58:57.737Z,26.38
2023-01-19T20:01:32.953Z,28.90
2023-01-19T20:04:07.771Z,32.33
2023-01-19T20:06:39.920Z,25.08
2023-01-19T20:09:09.940Z,24.52
2023-01-19T20:11:37.401Z,19.00
2023-01-19T20:14:09.384Z,21.10
2023-01-19T20:16:37.729Z,21.70
2023-01-19T20:19:05.479Z,30.65
2023-01-19T20:21:38.359Z,24.35
2023-01-19T20:26:39.863Z,18.92
2023-01-19T20:29:07.416Z,44.53
2023-01-19T20:31:37.847Z,22.80
2023-01-19T20:34:06.969Z,18.85
2023-01-19T20:36:34.795Z,32.40
2023-01-19T20:39:08.493Z,27.83
2023-01-19T20:41:43.265Z,23.58
2023-01-19T20:44:35.331Z,33.88
2023-01-19T20:47:05.825Z,27.60
2023-01-19T20:49:34.163Z,26.23
2023-01-19T20:52:01.667Z,26.23
2023-01-19T20:54:30.632Z,25.77
2023-01-19T20:56:58.488Z,21.95
2023-01-19T20:59:26.125Z,31.50
2023-01-19T21:01:56.143Z,29.80
2023-01-19T21:04:26.859Z,29.23
2023-01-19T21:06:55.610Z,24.60
2023-01-19T21:09:24.757Z,25.90
2023-01-19T21:11:57.430Z,35.20
2023-01-19T21:16:52.835Z,25.77
2023-01-19T21:19:20.318Z,19.50
2023-01-19T21:21:47.905Z,16.92
2023-01-19T21:24:15.643Z,20.00
2023-01-19T21:26:45.516Z,19.02
2023-01-19T21:29:13.401Z,35.65
2023-01-19T21:31:41.828Z,11.57
2023-01-19T21:34:10.259Z,9.23
2023-01-19T21:36:37.869Z,6.28
2023-01-19T21:39:08.013Z,6.35
2023-01-19T21:41:36.061Z,7.90
2023-01-19T21:44:04.158Z,6.43
2023-01-19T21:46:33.657Z,7.75
2023-01-19T21:49:04.781Z,8.82
2023-01-19T21:51:34.912Z,9.85
2023-01-19T21:54:04.275Z,9.48
2023-01-19T21:56:32.744Z,10.02
2023-01-19T21:59:06.106Z,12.05
2023-01-19T22:01:34.704Z,9.50
2023-01-19T22:04:06.343Z,11.30
2023-01-19T22:06:34.024Z,14.20
2023-01-19T22:09:01.853Z,14.02
2023-01-19T22:11:31.284Z,14.55
2023-01-19T22:14:02.119Z,16.17
2023-01-19T22:16:30.820Z,15.40
2023-01-19T22:19:01.499Z,14.70
2023-01-19T22:21:32.489Z,16.60
2023-01-19T22:24:04.411Z,14.88
2023-01-19T22:26:34.940Z,20.47
2023-01-19T22:29:05.317Z,18.90
2023-01-19T22:31:34.758Z,17.27
2023-01-19T22:34:04.277Z,16.02
2023-01-19T22:36:36.363Z,15.52
2023-01-19T22:39:08.051Z,16.63
2023-01-19T22:41:47.091Z,14.13
2023-01-19T22:44:21.497Z,12.48
2023-01-19T22:46:51.280Z,14.65
2023-01-19T22:49:20.819Z,17.05
2023-01-19T22:51:50.177Z,18.77
2023-01-19T22:54:18.461Z,22.00
2023-01-19T22:56:46.751Z,28.90
2023-01-19T22:59:17.556Z,31.40
2023-01-19T23:01:46.261Z,28.77
2023-01-19T23:04:15.868Z,35.45
2023-01-19T23:06:49.418Z,37.65
2023-01-19T23:09:17.530Z,38.05
2023-01-19T23:11:50.396Z,42.85
2023-01-19T23:16:51.938Z,51.80
2023-01-19T23:19:20.175Z,43.38
2023-01-19T23:21:50.810Z,49.78
2023-01-19T23:24:19.063Z,55.85
2023-01-19T23:26:49.400Z,46.72
2023-01-19T23:29:18.194Z,51.58
2023-01-19T23:31:50.113Z,48.92
2023-01-19T23:34:21.141Z,52.47
2023-01-19T23:36:49.080Z,51.17
2023-01-19T23:39:24.945Z,50.70
2023-01-19T23:41:53.416Z,51.72
2023-01-19T23:44:26.406Z,51.80
2023-01-19T23:46:58.094Z,52.78
2023-01-19T23:49:25.928Z,56.00
2023-01-19T23:51:54.014Z,55.65
2023-01-19T23:54:25.376Z,60.80
2023-01-19T23:56:55.838Z,63.90
2023-01-19T23:59:26.416Z,66.90
